Time;durP1;ratioP1;P1;durP2;ratioP2;P2;SDS_P1;SDS_P2;PMS_P1;PMS_P2;Temp;Humidity;BMP_temperature;BMP_pressure;BME280_temperature;BME280_humidity;BME280_pressure;Samples;Min_cycle;Max_cycle;Signal;HPM_P1;HPM_P2
2022/06/10 00:00:05;;;;;;;;;;;;;;;13.68;71.92;102012.13;5060283;28;19931;-61
2022/06/10 00:02:31;;;;;;;;;;;;;;;13.66;72.29;102011.44;5071004;28;19960;-60
2022/06/10 00:04:56;;;;;;;;;;;;;;;13.65;72.48;102008.94;5062477;28;19964;-61
2022/06/10 00:07:21;;;;;;;;;;;;;;;13.64;72.41;102008.09;5063322;28;19924;-61
2022/06/10 00:09:46;;;;;;;;;;;;;;;13.64;71.79;102008.09;5057639;28;19928;-61
2022/06/10 00:12:11;;;;;;;;;;;;;;;13.64;72.01;102012.59;5062686;28;19946;-61
2022/06/10 00:14:37;;;;;;;;;;;;;;;13.63;71.96;102008.25;5063395;28;19972;-60
2022/06/10 00:17:02;;;;;;;;;;;;;;;13.59;72.09;102005.88;5061667;28;19928;-61
2022/06/10 00:19:27;;;;;;;;;;;;;;;13.58;72.18;102006.88;5060695;28;19924;-60
2022/06/10 00:21:52;;;;;;;;;;;;;;;13.57;72.52;102002.53;5056621;28;19928;-61
2022/06/10 00:24:18;;;;;;;;;;;;;;;13.58;72.03;102003.38;5063564;28;19924;-60
2022/06/10 00:26:43;;;;;;;;;;;;;;;13.57;72.39;102001.72;5060722;28;19928;-60
2022/06/10 00:29:08;;;;;;;;;;;;;;;13.57;72.65;102010.53;5041113;28;19924;-60
2022/06/10 00:31:33;;;;;;;;;;;;;;;13.56;72.52;102008.88;5060004;28;19982;-61
2022/06/10 00:33:58;;;;;;;;;;;;;;;13.57;72.44;102007.88;5058832;28;20019;-60
2022/06/10 00:36:24;;;;;;;;;;;;;;;13.58;72.53;102008.72;5060282;28;19943;-60
2022/06/10 00:38:49;;;;;;;;;;;;;;;13.57;72.49;101997.22;5061280;28;19925;-61
2022/06/10 00:41:14;;;;;;;;;;;;;;;13.58;72.61;102004.22;5042462;28;20391;-61
2022/06/10 00:43:39;;;;;;;;;;;;;;;13.56;72.74;101998.22;5061829;28;19932;-60
2022/06/10 00:46:20;;;;;;;;;;;;;;;13.55;72.59;101999.19;5057076;28;19979;-61
2022/06/10 00:49:05;;;;;;;;;;;;;;;13.56;72.82;102003.53;5054848;28;20337;-60
2022/06/10 00:51:31;;;;;;;;;;;;;;;13.58;72.62;101998.06;5057994;28;19967;-61
2022/06/10 00:53:58;;;;;;;;;;;;;;;13.59;72.90;102000.56;5043467;28;19956;-61
2022/06/10 00:56:24;;;;;;;;;;;;;;;13.63;72.84;101997.59;5060861;28;19924;-61
2022/06/10 00:58:55;;;;;;;;;;;;;;;13.64;72.52;101996.59;5059714;28;20343;-60
2022/06/10 01:01:20;;;;;;;;;;;;;;;13.66;72.92;101994.63;5057075;28;19925;-61
2022/06/10 01:03:46;;;;;;;;;;;;;;;13.67;72.76;101990.97;5061215;28;19931;-61
2022/06/10 01:06:11;;;;;;;;;;;;;;;13.68;73.02;101987.31;5061764;28;19928;-61
2022/06/10 01:08:37;;;;;;;;;;;;;;;13.66;73.14;101989.31;5061948;28;19928;-61
2022/06/10 01:11:13;;;;;;;;;;;;;;;13.67;72.86;101993.63;5061137;28;20015;-60
2022/06/10 01:13:53;;;;;;;;;;;;;;;13.67;73.51;101990.97;5054444;28;19936;-60
2022/06/10 01:16:30;;;;;;;;;;;;;;;13.66;73.07;101994.63;5061693;28;19924;-61
2022/06/10 01:19:17;;;;;;;;;;;;;;;13.65;72.97;101998.25;5057621;28;19924;-61
2022/06/10 01:22:01;;;;;;;;;;;;;;;13.65;72.90;101995.59;5058429;28;20366;-60
2022/06/10 01:24:44;;;;;;;;;;;;;;;13.67;73.18;101994.47;5056594;28;19947;-61
2022/06/10 01:30:19;;;;;;;;;;;;;;;13.68;73.09;101995.31;5048687;28;20286;-61
2022/06/10 01:33:10;;;;;;;;;;;;;;;13.69;73.05;101996.97;5061470;28;19936;-60
2022/06/10 01:35:41;;;;;;;;;;;;;;;13.73;73.31;101990.34;5031542;28;20016;-60
2022/06/10 01:38:20;;;;;;;;;;;;;;;13.72;73.19;101994.84;5060256;28;19924;-61
2022/06/10 01:41:04;;;;;;;;;;;;;;;13.74;72.83;101996.50;5061452;28;19939;-60
2022/06/10 01:43:35;;;;;;;;;;;;;;;13.73;72.64;101995.69;5054875;28;19925;-60
2022/06/10 01:46:11;;;;;;;;;;;;;;;13.74;73.09;101997.34;5057793;28;19924;-61
2022/06/10 01:48:46;;;;;;;;;;;;;;;13.72;73.00;101994.84;5057581;28;20782;-61
2022/06/10 01:51:17;;;;;;;;;;;;;;;13.74;73.29;102002.69;5039761;28;20491;-61
2022/06/10 01:53:56;;;;;;;;;;;;;;;13.74;73.45;101993.84;5063499;28;20429;-61
2022/06/10 01:56:24;;;;;;;;;;;;;;;13.76;72.92;101992.69;5046807;28;19924;-60
2022/06/10 01:59:01;;;;;;;;;;;;;;;13.76;72.93;101995.38;5063461;28;20298;-60
2022/06/10 02:01:30;;;;;;;;;;;;;;;13.78;73.26;101990.75;5045806;28;19924;-60
2022/06/10 02:03:55;;;;;;;;;;;;;;;13.80;73.40;101993.22;5063832;28;19964;-60
2022/06/10 02:06:28;;;;;;;;;;;;;;;13.80;73.05;101994.06;5052033;28;19959;-60
2022/06/10 02:08:57;;;;;;;;;;;;;;;13.79;72.93;101997.75;5064393;28;20335;-61
2022/06/10 02:11:25;;;;;;;;;;;;;;;13.80;73.15;102001.22;5064197;28;19978;-61
2022/06/10 02:13:50;;;;;;;;;;;;;;;13.81;72.92;102000.25;5060219;28;19925;-60
2022/06/10 02:16:17;;;;;;;;;;;;;;;13.82;72.59;102002.75;5063592;28;20342;-61
2022/06/10 02:18:49;;;;;;;;;;;;;;;13.79;73.27;101992.41;5056814;28;19924;-61
2022/06/10 02:21:24;;;;;;;;;;;;;;;13.79;73.02;101994.22;5059709;28;19928;-61
2022/06/10 02:23:54;;;;;;;;;;;;;;;13.80;73.33;101987.91;5064881;28;19924;-60
2022/06/10 02:26:21;;;;;;;;;;;;;;;13.80;73.20;102002.06;5064374;28;20018;-60
2022/06/10 02:28:50;;;;;;;;;;;;;;;13.84;72.96;101992.78;5063549;28;19931;-60
2022/06/10 02:31:27;;;;;;;;;;;;;;;13.78;73.94;102004.06;5064676;28;20961;-61
2022/06/10 02:33:54;;;;;;;;;;;;;;;13.77;73.34;102002.38;5064006;28;19925;-60
2022/06/10 02:36:25;;;;;;;;;;;;;;;13.81;73.24;102013.59;5063450;28;19962;-60
2022/06/10 02:38:59;;;;;;;;;;;;;;;13.78;73.72;102014.72;5063547;28;19939;-60
2022/06/10 02:41:31;;;;;;;;;;;;;;;13.79;73.38;102005.75;5060822;28;19925;-61
2022/06/10 02:44:03;;;;;;;;;;;;;;;13.79;73.47;102004.88;5062879;28;19950;-61
2022/06/10 02:46:54;;;;;;;;;;;;;;;13.81;73.49;102024.25;5056523;28;20290;-60
2022/06/10 02:49:20;;;;;;;;;;;;;;;13.79;73.69;102027.06;5058424;28;20825;-61
2022/06/10 02:51:46;;;;;;;;;;;;;;;13.79;73.83;102019.06;5059585;28;19924;-61
2022/06/10 02:54:13;;;;;;;;;;;;;;;13.78;74.46;102013.88;5058668;28;19934;-61
2022/06/10 02:56:38;;;;;;;;;;;;;;;13.78;74.07;102020.06;5063178;28;19948;-61
2022/06/10 03:01:50;;;;;;;;;;;;;;;13.79;74.34;102005.75;5062358;28;19971;-60
2022/06/10 03:04:15;;;;;;;;;;;;;;;13.81;74.43;102009.06;5051656;28;19977;-60
2022/06/10 03:07:07;;;;;;;;;;;;;;;13.81;73.72;102014.41;5055059;28;19931;-60
2022/06/10 03:09:56;;;;;;;;;;;;;;;13.84;73.40;102016.78;5060345;28;20674;-61
2022/06/10 03:12:21;;;;;;;;;;;;;;;13.84;73.42;102027.44;5060504;28;19925;-60
2022/06/10 03:14:46;;;;;;;;;;;;;;;13.85;74.11;102026.44;5058750;28;20405;-60
2022/06/10 03:17:15;;;;;;;;;;;;;;;13.85;73.93;102020.25;5055955;28;20625;-61
2022/06/10 03:19:45;;;;;;;;;;;;;;;13.87;74.25;102025.44;5061126;28;20417;-60
2022/06/10 03:22:29;;;;;;;;;;;;;;;13.89;73.79;102031.44;5064478;28;19924;-61
2022/06/10 03:25:13;;;;;;;;;;;;;;;13.90;74.16;102030.47;5075757;28;20360;-60
2022/06/10 03:27:46;;;;;;;;;;;;;;;13.91;73.85;102035.66;5060156;28;20417;-60
2022/06/10 03:30:14;;;;;;;;;;;;;;;13.90;74.24;102038.47;5062358;28;20019;-61
2022/06/10 03:32:42;;;;;;;;;;;;;;;13.90;74.17;102038.47;5053905;28;19931;-60
2022/06/10 03:35:12;;;;;;;;;;;;;;;13.92;73.52;102042.66;5049970;28;19931;-60
2022/06/10 03:37:38;;;;;;;;;;;;;;;13.94;73.77;102039.84;5064172;28;19924;-61
2022/06/10 03:40:04;;;;;;;;;;;;;;;13.93;73.79;102043.50;5059463;28;19928;-61
2022/06/10 03:42:29;;;;;;;;;;;;;;;13.91;74.15;102038.31;5058793;28;19935;-60
2022/06/10 03:44:56;;;;;;;;;;;;;;;13.90;75.00;102028.66;5060217;28;19931;-60
2022/06/10 03:47:27;;;;;;;;;;;;;;;13.90;74.58;102030.47;5064022;28;20027;-61
2022/06/10 03:49:54;;;;;;;;;;;;;;;13.90;74.98;102027.78;5062717;28;19925;-60
2022/06/10 03:52:22;;;;;;;;;;;;;;;13.90;74.75;102027.78;5064060;28;19979;-60
2022/06/10 03:54:47;;;;;;;;;;;;;;;13.91;74.75;102032.16;5059748;28;19924;-61
2022/06/10 03:57:13;;;;;;;;;;;;;;;13.92;75.00;102031.16;5050705;28;20402;-60
2022/06/10 03:59:39;;;;;;;;;;;;;;;13.92;74.51;102031.16;5062795;28;19936;-61
2022/06/10 04:02:04;;;;;;;;;;;;;;;13.94;74.39;102045.16;5060442;28;19924;-60
2022/06/10 04:04:29;;;;;;;;;;;;;;;13.94;74.63;102039.84;5061583;28;19928;-60
2022/06/10 04:06:55;;;;;;;;;;;;;;;13.94;74.76;102045.16;5062169;28;19929;-60
2022/06/10 04:09:20;;;;;;;;;;;;;;;13.96;74.72;102043.22;5063181;28;20400;-61
2022/06/10 04:11:46;;;;;;;;;;;;;;;13.96;75.81;102052.03;5063100;28;19928;-60
2022/06/10 04:14:11;;;;;;;;;;;;;;;13.96;75.47;102053.88;5059003;28;19932;-61
2022/06/10 04:16:36;;;;;;;;;;;;;;;13.92;75.63;102044.50;5038673;28;21879;-61
2022/06/10 04:19:01;;;;;;;;;;;;;;;13.96;75.71;102051.19;5061245;28;19924;-61
2022/06/10 04:21:27;;;;;;;;;;;;;;;13.98;75.70;102046.53;5060211;28;19925;-61
2022/06/10 04:23:52;;;;;;;;;;;;;;;14.01;75.04;102050.72;5064680;28;19924;-60
2022/06/10 04:26:17;;;;;;;;;;;;;;;14.02;75.78;102058.59;5063831;28;19985;-60
2022/06/10 04:28:42;;;;;;;;;;;;;;;14.03;75.49;102064.75;5044258;28;19920;-60
2022/06/10 04:31:07;;;;;;;;;;;;;;;14.03;76.01;102064.75;5043371;28;20342;-60
2022/06/10 04:33:34;;;;;;;;;;;;;;;14.05;76.58;102058.25;5064097;28;19939;-61
2022/06/10 04:35:59;;;;;;;;;;;;;;;14.06;75.53;102053.78;5047334;28;19924;-60
2022/06/10 04:38:24;;;;;;;;;;;;;;;14.07;76.34;102056.28;5060822;28;19936;-60
2022/06/10 04:40:50;;;;;;;;;;;;;;;14.09;75.59;102053.44;5060996;28;20363;-61
2022/06/10 04:43:16;;;;;;;;;;;;;;;14.10;76.70;102055.13;5058365;28;19931;-61
2022/06/10 04:45:46;;;;;;;;;;;;;;;14.10;77.05;102061.31;5060076;28;19944;-61
2022/06/10 04:48:12;;;;;;;;;;;;;;;14.10;76.82;102066.63;5060468;28;19935;-61
2022/06/10 04:50:38;;;;;;;;;;;;;;;14.11;76.52;102064.78;5060850;28;19924;-61
2022/06/10 04:53:03;;;;;;;;;;;;;;;14.12;76.76;102064.66;5059289;28;19924;-60
2022/06/10 04:55:28;;;;;;;;;;;;;;;14.13;76.54;102060.16;5061935;28;20286;-61
2022/06/10 04:57:54;;;;;;;;;;;;;;;14.13;77.33;102060.97;5032892;28;19958;-61
2022/06/10 05:00:21;;;;;;;;;;;;;;;14.13;76.45;102060.97;5060415;28;19928;-61
2022/06/10 05:02:47;;;;;;;;;;;;;;;14.16;77.01;102064.34;5059781;28;19967;-61
2022/06/10 05:05:12;;;;;;;;;;;;;;;14.17;76.27;102064.19;5048672;28;20028;-60
2022/06/10 05:07:37;;;;;;;;;;;;;;;14.18;76.19;102054.34;5057226;28;19924;-62
2022/06/10 05:10:03;;;;;;;;;;;;;;;14.20;76.01;102055.03;5061030;28;19925;-61
2022/06/10 05:12:28;;;;;;;;;;;;;;;14.23;76.83;102054.72;5055074;28;19932;-60
2022/06/10 05:14:53;;;;;;;;;;;;;;;14.23;76.89;102055.56;5057940;28;19929;-61
2022/06/10 05:17:19;;;;;;;;;;;;;;;14.26;76.75;102057.06;5060417;28;20058;-62
2022/06/10 05:19:46;;;;;;;;;;;;;;;14.29;76.11;102054.09;5055074;28;19929;-62
2022/06/10 05:22:12;;;;;;;;;;;;;;;14.28;77.79;102052.44;5060677;28;19947;-61
2022/06/10 05:24:37;;;;;;;;;;;;;;;14.27;76.96;102045.44;5062319;28;20379;-62
2022/06/10 05:27:02;;;;;;;;;;;;;;;14.29;77.28;102048.75;5064495;28;21461;-62
2022/06/10 05:29:27;;;;;;;;;;;;;;;14.31;76.89;102049.44;5064030;28;20539;-61
2022/06/10 05:31:53;;;;;;;;;;;;;;;14.32;76.69;102043.13;5047046;28;19928;-60
2022/06/10 05:37:02;;;;;;;;;;;;;;;14.41;77.11;102045.84;5063561;28;19986;-60
2022/06/10 05:39:28;;;;;;;;;;;;;;;14.47;77.00;102050.53;5064337;28;20548;-61
2022/06/10 05:42:05;;;;;;;;;;;;;;;14.51;76.54;102051.91;5069197;28;20060;-61
2022/06/10 05:44:30;;;;;;;;;;;;;;;14.56;77.07;102052.25;5065187;28;19928;-61
2022/06/10 05:46:56;;;;;;;;;;;;;;;14.58;77.81;102050.28;5066212;28;19924;-62
2022/06/10 05:49:21;;;;;;;;;;;;;;;14.61;76.51;102051.81;5073724;28;20280;-59
2022/06/10 05:51:47;;;;;;;;;;;;;;;14.66;76.60;102050.31;5069101;28;19929;-62
2022/06/10 05:54:12;;;;;;;;;;;;;;;14.70;78.82;102045.50;5063084;28;20400;-59
2022/06/10 05:56:39;;;;;;;;;;;;;;;14.74;77.31;102046.00;5064534;28;20341;-58
2022/06/10 05:59:04;;;;;;;;;;;;;;;14.77;79.18;102043.06;5065891;28;19925;-58
2022/06/10 06:01:30;;;;;;;;;;;;;;;14.81;77.75;102046.25;5047272;28;20383;-59
2022/06/10 06:03:55;;;;;;;;;;;;;;;14.85;77.99;102047.59;5068580;28;19931;-61
2022/06/10 06:06:20;;;;;;;;;;;;;;;14.89;76.89;102044.44;5068902;28;19988;-59
2022/06/10 06:08:48;;;;;;;;;;;;;;;14.94;76.91;102051.97;5069153;28;19955;-58
2022/06/10 06:11:13;;;;;;;;;;;;;;;15.00;77.20;102047.84;5066687;28;20876;-60
2022/06/10 06:13:39;;;;;;;;;;;;;;;15.03;76.50;102050.16;5069696;28;20036;-59
2022/06/10 06:16:05;;;;;;;;;;;;;;;15.05;76.72;102058.88;5066253;28;20378;-57
2022/06/10 06:18:30;;;;;;;;;;;;;;;15.10;76.39;102050.38;5067088;28;20237;-59
2022/06/10 06:20:55;;;;;;;;;;;;;;;15.13;77.49;102056.22;5064234;28;20746;-61
2022/06/10 06:23:20;;;;;;;;;;;;;;;15.17;76.33;102057.59;5065073;28;19935;-58
2022/06/10 06:25:45;;;;;;;;;;;;;;;15.22;76.79;102056.25;5064822;28;19943;-57
2022/06/10 06:28:11;;;;;;;;;;;;;;;15.25;76.54;102061.28;5070674;28;19924;-60
2022/06/10 06:30:37;;;;;;;;;;;;;;;15.28;76.01;102060.94;5068042;28;19925;-58
2022/06/10 06:33:03;;;;;;;;;;;;;;;15.29;76.56;102068.78;5071325;28;19931;-59
2022/06/10 06:35:29;;;;;;;;;;;;;;;15.32;76.07;102075.66;5062540;28;19924;-58
2022/06/10 06:37:55;;;;;;;;;;;;;;;15.35;76.08;102070.00;5068249;28;20178;-57
2022/06/10 06:40:21;;;;;;;;;;;;;;;15.38;76.65;102066.97;5063544;28;21925;-57
2022/06/10 06:42:47;;;;;;;;;;;;;;;15.42;76.33;102075.50;5064166;28;19928;-57
2022/06/10 06:45:13;;;;;;;;;;;;;;;15.50;76.05;102077.38;5060073;28;19924;-58
2022/06/10 06:47:38;;;;;;;;;;;;;;;15.48;76.30;102074.84;5059314;28;20038;-57
2022/06/10 06:50:04;;;;;;;;;;;;;;;15.50;76.58;102086.22;5064402;28;19928;-58
2022/06/10 06:52:29;;;;;;;;;;;;;;;15.53;75.81;102082.38;5071871;28;20289;-58
2022/06/10 06:54:54;;;;;;;;;;;;;;;15.55;75.99;102081.22;5062535;28;20012;-58
2022/06/10 06:57:20;;;;;;;;;;;;;;;15.58;76.19;102085.38;5072573;28;19951;-58
2022/06/10 06:59:45;;;;;;;;;;;;;;;15.61;76.26;102087.75;5064103;28;20881;-57
2022/06/10 07:02:10;;;;;;;;;;;;;;;15.65;75.89;102091.78;5066404;28;21827;-58
2022/06/10 07:04:36;;;;;;;;;;;;;;;15.68;75.78;102091.44;5065362;28;20004;-57
2022/06/10 07:07:02;;;;;;;;;;;;;;;15.71;75.86;102080.41;5065144;28;20255;-56
2022/06/10 07:09:27;;;;;;;;;;;;;;;15.77;75.69;102083.41;5071244;28;20286;-61
2022/06/10 07:11:54;;;;;;;;;;;;;;;15.78;75.45;102079.75;5063362;28;20007;-59
2022/06/10 07:14:19;;;;;;;;;;;;;;;15.78;75.60;102080.56;5061011;28;19931;-59
2022/06/10 07:16:44;;;;;;;;;;;;;;;15.82;76.36;102078.41;5060946;28;19928;-60
2022/06/10 07:19:09;;;;;;;;;;;;;;;15.89;75.71;102076.72;5048577;28;19924;-60
2022/06/10 07:21:35;;;;;;;;;;;;;;;15.96;75.27;102083.13;5062385;28;19924;-61
2022/06/10 07:24:00;;;;;;;;;;;;;;;16.03;75.58;102077.13;5047018;28;19963;-60
2022/06/10 07:26:25;;;;;;;;;;;;;;;16.09;75.63;102087.97;5069149;28;20015;-59
2022/06/10 07:28:51;;;;;;;;;;;;;;;16.20;75.29;102091.31;5045816;28;19916;-62
2022/06/10 07:31:17;;;;;;;;;;;;;;;16.25;74.59;102092.47;5061478;28;19956;-62
2022/06/10 07:33:42;;;;;;;;;;;;;;;16.26;74.81;102086.13;5061131;28;19970;-61
2022/06/10 07:36:07;;;;;;;;;;;;;;;16.28;74.76;102091.31;5060057;28;19979;-60
2022/06/10 07:38:34;;;;;;;;;;;;;;;16.27;74.48;102095.00;5064945;28;20695;-61
2022/06/10 07:43:43;;;;;;;;;;;;;;;16.32;74.44;102091.81;5058946;28;19934;-61
2022/06/10 07:46:10;;;;;;;;;;;;;;;16.28;74.53;102096.66;5063270;28;19925;-60
2022/06/10 07:48:35;;;;;;;;;;;;;;;16.27;74.51;102095.84;5061153;28;19978;-61
2022/06/10 07:51:01;;;;;;;;;;;;;;;16.27;74.41;102095.00;5060995;28;19921;-60
2022/06/10 07:53:29;;;;;;;;;;;;;;;16.27;74.48;102090.47;5056657;28;19927;-60
2022/06/10 07:55:54;;;;;;;;;;;;;;;16.31;74.91;102079.41;5063543;28;20513;-60
2022/06/10 07:58:19;;;;;;;;;;;;;;;16.35;74.87;102078.09;5046534;28;19941;-59
2022/06/10 08:00:45;;;;;;;;;;;;;;;16.42;74.65;102081.75;5061558;28;19930;-60
2022/06/10 08:03:11;;;;;;;;;;;;;;;16.52;74.43;102074.38;5056616;28;19928;-60
2022/06/10 08:05:37;;;;;;;;;;;;;;;16.59;74.13;102081.72;5061361;28;19947;-61
2022/06/10 08:08:03;;;;;;;;;;;;;;;16.66;74.05;102082.69;5061576;28;20415;-60
2022/06/10 08:10:31;;;;;;;;;;;;;;;16.73;73.45;102086.34;5063242;28;19964;-61
2022/06/10 08:12:56;;;;;;;;;;;;;;;16.80;73.33;102084.69;5064421;28;19962;-62
2022/06/10 08:15:22;;;;;;;;;;;;;;;16.93;73.14;102094.03;5063967;28;19944;-61
2022/06/10 08:17:48;;;;;;;;;;;;;;;16.98;73.17;102091.66;5063846;28;19931;-61
2022/06/10 08:20:16;;;;;;;;;;;;;;;17.10;72.23;102086.78;5061980;28;19933;-61
2022/06/10 08:22:42;;;;;;;;;;;;;;;17.15;72.05;102096.97;5063279;28;19924;-64
2022/06/10 08:25:10;;;;;;;;;;;;;;;17.19;72.15;102098.28;5059490;28;21365;-61
2022/06/10 08:27:35;;;;;;;;;;;;;;;17.24;72.06;102095.91;5054695;28;19928;-61
2022/06/10 08:30:01;;;;;;;;;;;;;;;17.27;72.26;102084.84;5063727;28;19924;-62
2022/06/10 08:32:26;;;;;;;;;;;;;;;17.31;71.66;102101.41;5053439;28;19931;-63
2022/06/10 08:34:51;;;;;;;;;;;;;;;17.35;70.18;102094.69;5062476;28;20390;-63
2022/06/10 08:37:16;;;;;;;;;;;;;;;17.59;68.47;102099.06;5063078;28;20477;-62
2022/06/10 08:39:42;;;;;;;;;;;;;;;17.38;70.22;102096.19;5059210;28;20003;-62
2022/06/10 08:42:13;;;;;;;;;;;;;;;17.49;69.30;102098.47;5054431;28;20375;-61
2022/06/10 08:44:38;;;;;;;;;;;;;;;17.37;70.42;102089.16;5058683;28;19981;-63
2022/06/10 08:47:21;;;;;;;;;;;;;;;17.40;70.09;102083.41;5063940;28;19924;-61
2022/06/10 08:50:05;;;;;;;;;;;;;;;17.44;69.84;102084.75;5062065;28;19928;-62
2022/06/10 08:52:39;;;;;;;;;;;;;;;17.55;68.86;102076.31;5060647;28;19974;-61
2022/06/10 08:55:16;;;;;;;;;;;;;;;17.67;69.95;102081.25;5053089;28;20003;-60
2022/06/10 08:57:45;;;;;;;;;;;;;;;17.91;69.87;102066.81;5052063;28;19932;-61
2022/06/10 09:00:17;;;;;;;;;;;;;;;18.14;69.17;102069.50;5060861;28;19950;-60
2022/06/10 09:02:45;;;;;;;;;;;;;;;18.39;69.54;102077.31;5053802;28;20268;-61
2022/06/10 09:05:13;;;;;;;;;;;;;;;18.62;68.69;102060.28;5062128;28;19924;-61
2022/06/10 09:07:47;;;;;;;;;;;;;;;18.77;67.58;102072.88;5060758;28;20074;-61
2022/06/10 09:10:19;;;;;;;;;;;;;;;18.82;67.35;102073.16;5062549;28;19931;-60
2022/06/10 09:12:57;;;;;;;;;;;;;;;18.91;67.12;102080.06;5063605;28;20905;-61
2022/06/10 09:15:24;;;;;;;;;;;;;;;18.96;67.56;102083.03;5072249;28;19987;-61
2022/06/10 09:17:52;;;;;;;;;;;;;;;19.07;66.26;102081.78;5045189;28;20422;-60
2022/06/10 09:20:34;;;;;;;;;;;;;;;19.12;65.74;102081.22;5060821;28;19977;-61
2022/06/10 09:23:02;;;;;;;;;;;;;;;19.19;66.19;102086.66;5061126;28;19943;-61
2022/06/10 09:25:31;;;;;;;;;;;;;;;19.30;66.87;102077.28;5057508;28;20388;-61
2022/06/10 09:27:57;;;;;;;;;;;;;;;19.47;66.73;102083.25;5062461;28;19963;-61
2022/06/10 09:30:46;;;;;;;;;;;;;;;19.56;66.80;102084.81;5061127;28;19924;-61
2022/06/10 09:33:21;;;;;;;;;;;;;;;19.62;64.96;102085.88;5057246;28;19936;-61
2022/06/10 09:35:53;;;;;;;;;;;;;;;19.64;65.14;102089.22;5062756;28;19927;-61
2022/06/10 09:38:24;;;;;;;;;;;;;;;19.85;63.44;102084.84;5061176;28;19924;-60
2022/06/10 09:40:52;;;;;;;;;;;;;;;19.69;64.02;102091.34;5058612;28;20378;-61
2022/06/10 09:43:37;;;;;;;;;;;;;;;19.55;64.57;102084.97;5060580;28;20031;-60
2022/06/10 09:46:20;;;;;;;;;;;;;;;19.62;63.17;102075.13;5058202;28;19925;-61
2022/06/10 09:48:58;;;;;;;;;;;;;;;19.42;65.08;102086.50;5061948;28;19925;-61
2022/06/10 09:51:49;;;;;;;;;;;;;;;19.48;64.21;102074.13;5033870;28;20017;-60
2022/06/10 09:54:24;;;;;;;;;;;;;;;19.43;64.31;102085.47;5051558;28;19935;-61
2022/06/10 09:56:52;;;;;;;;;;;;;;;19.43;64.86;102082.78;5056613;28;19967;-61
2022/06/10 09:59:17;;;;;;;;;;;;;;;19.43;64.51;102080.09;5057209;28;19978;-60
2022/06/10 10:01:58;;;;;;;;;;;;;;;19.48;65.18;102085.75;5062006;28;20345;-61
2022/06/10 10:04:42;;;;;;;;;;;;;;;19.75;65.21;102083.31;5058552;28;19932;-61
2022/06/10 10:07:17;;;;;;;;;;;;;;;19.97;65.29;102088.72;5063247;28;19921;-61
2022/06/10 10:09:48;;;;;;;;;;;;;;;20.10;65.02;102090.69;5064346;28;20294;-60
2022/06/10 10:12:22;;;;;;;;;;;;;;;20.14;64.68;102083.06;5052777;28;19920;-61
2022/06/10 10:14:56;;;;;;;;;;;;;;;20.18;65.34;102088.88;5062349;28;19930;-61
2022/06/10 10:17:24;;;;;;;;;;;;;;;20.17;65.28;102088.03;5065014;28;20022;-61
2022/06/10 10:20:08;;;;;;;;;;;;;;;20.27;63.30;102093.94;5066414;28;19931;-61
2022/06/10 10:22:33;;;;;;;;;;;;;;;20.05;64.31;102081.53;5066046;28;19927;-61
2022/06/10 10:24:59;;;;;;;;;;;;;;;19.90;65.21;102085.94;5062424;28;19924;-60
2022/06/10 10:27:31;;;;;;;;;;;;;;;20.11;63.87;102078.06;5058353;28;19963;-60
2022/06/10 10:30:01;;;;;;;;;;;;;;;20.37;62.48;102076.59;5066246;28;20022;-61
2022/06/10 10:32:30;;;;;;;;;;;;;;;20.16;64.78;102081.84;5065739;28;19978;-61
2022/06/10 10:35:08;;;;;;;;;;;;;;;20.27;64.94;102074.22;5060373;28;19935;-61
2022/06/10 10:37:35;;;;;;;;;;;;;;;20.33;63.85;102076.13;5057940;28;19924;-60
2022/06/10 10:40:14;;;;;;;;;;;;;;;20.38;63.95;102072.88;5058268;28;20371;-61
2022/06/10 10:42:41;;;;;;;;;;;;;;;20.40;64.70;102068.94;5062696;28;19924;-62
2022/06/10 10:45:18;;;;;;;;;;;;;;;20.53;65.08;102065.50;5060465;28;19936;-61
2022/06/10 10:47:48;;;;;;;;;;;;;;;20.68;64.97;102068.06;5064734;28;19984;-61
2022/06/10 10:50:20;;;;;;;;;;;;;;;20.73;63.75;102070.19;5065518;28;19929;-61
2022/06/10 10:52:46;;;;;;;;;;;;;;;20.79;61.90;102063.97;5066064;28;19921;-62
2022/06/10 10:55:14;;;;;;;;;;;;;;;20.73;62.21;102056.69;5064508;28;19947;-61
2022/06/10 10:57:42;;;;;;;;;;;;;;;20.55;63.16;102063.44;5060819;28;20439;-61
2022/06/10 11:00:27;;;;;;;;;;;;;;;20.46;63.72;102075.41;5058988;28;20007;-61
2022/06/10 11:02:54;;;;;;;;;;;;;;;20.45;63.88;102073.75;5022899;28;19956;-61
2022/06/10 11:05:25;;;;;;;;;;;;;;;20.47;64.06;102066.28;5059672;28;19936;-62
2022/06/10 11:08:09;;;;;;;;;;;;;;;20.51;64.41;102067.56;5047685;28;20359;-61
2022/06/10 11:10:39;;;;;;;;;;;;;;;20.49;64.25;102064.25;5050469;28;19935;-62
2022/06/10 11:13:06;;;;;;;;;;;;;;;20.50;63.98;102067.75;5059044;28;19925;-62
2022/06/10 11:15:31;;;;;;;;;;;;;;;20.67;62.90;102054.81;5064592;28;20515;-61
2022/06/10 11:17:58;;;;;;;;;;;;;;;20.79;62.74;102063.13;5033855;28;20011;-61
2022/06/10 11:20:27;;;;;;;;;;;;;;;20.73;63.50;102062.09;5063012;28;19924;-62
2022/06/10 11:23:09;;;;;;;;;;;;;;;20.80;62.60;102060.25;5061654;28;20383;-61
2022/06/10 11:25:34;;;;;;;;;;;;;;;20.75;62.99;102061.88;5063937;28;19924;-61
2022/06/10 11:28:01;;;;;;;;;;;;;;;20.71;63.21;102064.13;5062377;28;19924;-61
2022/06/10 11:30:33;;;;;;;;;;;;;;;20.74;63.11;102062.91;5062594;28;19946;-61
2022/06/10 11:33:01;;;;;;;;;;;;;;;20.71;63.41;102061.44;5056676;28;19924;-61
2022/06/10 11:35:31;;;;;;;;;;;;;;;20.78;63.24;102065.00;5064427;28;19952;-62
2022/06/10 11:38:03;;;;;;;;;;;;;;;20.82;62.75;102066.25;5064999;28;20375;-61
2022/06/10 11:40:28;;;;;;;;;;;;;;;20.91;62.37;102058.88;5063085;28;19921;-60
2022/06/10 11:42:56;;;;;;;;;;;;;;;21.02;62.39;102062.03;5063757;28;19997;-61
2022/06/10 11:45:27;;;;;;;;;;;;;;;21.31;61.41;102054.66;5060592;28;20062;-60
2022/06/10 11:47:55;;;;;;;;;;;;;;;21.42;61.91;102061.31;5052671;28;19925;-61
2022/06/10 11:50:20;;;;;;;;;;;;;;;21.55;60.94;102055.91;5064803;28;19920;-61
2022/06/10 11:52:55;;;;;;;;;;;;;;;21.61;60.57;102048.88;5054553;28;19920;-61
2022/06/10 11:55:22;;;;;;;;;;;;;;;21.55;60.22;102049.72;5062106;28;19924;-61
2022/06/10 12:00:50;;;;;;;;;;;;;;;21.48;60.57;102038.91;5062167;28;19931;-60
2022/06/10 12:03:18;;;;;;;;;;;;;;;21.58;59.54;102027.69;5063705;28;20340;-60
2022/06/10 12:05:54;;;;;;;;;;;;;;;21.51;60.92;102043.88;5062840;28;19959;-60
2022/06/10 12:08:34;;;;;;;;;;;;;;;21.70;60.01;102041.44;5057405;28;20011;-61
2022/06/10 12:11:18;;;;;;;;;;;;;;;21.74;59.98;102042.69;5038582;28;19943;-61
2022/06/10 12:14:06;;;;;;;;;;;;;;;21.92;58.78;102038.53;5062695;28;20393;-61
2022/06/10 12:16:32;;;;;;;;;;;;;;;22.03;58.57;102036.03;5057312;28;19960;-61
2022/06/10 12:18:59;;;;;;;;;;;;;;;22.19;59.07;102027.69;5064065;28;19970;-61
2022/06/10 12:21:26;;;;;;;;;;;;;;;22.36;59.10;102028.91;5063590;28;20831;-60
2022/06/10 12:23:51;;;;;;;;;;;;;;;22.47;58.57;102029.28;5062238;28;20326;-61
2022/06/10 12:26:25;;;;;;;;;;;;;;;22.43;58.27;102023.47;5063118;28;19954;-61
2022/06/10 12:28:56;;;;;;;;;;;;;;;22.65;56.13;102018.63;5063380;28;19974;-61
2022/06/10 12:31:24;;;;;;;;;;;;;;;22.61;57.76;102025.53;5063796;28;19924;-61
2022/06/10 12:34:02;;;;;;;;;;;;;;;22.59;56.85;102016.78;5063080;28;20011;-61
2022/06/10 12:36:30;;;;;;;;;;;;;;;22.46;56.87;102012.25;5057901;28;20393;-61
2022/06/10 12:38:57;;;;;;;;;;;;;;;22.47;57.67;102002.25;5063468;28;20016;-60
2022/06/10 12:41:30;;;;;;;;;;;;;;;22.43;57.81;102002.69;5059346;28;20023;-61
2022/06/10 12:43:59;;;;;;;;;;;;;;;22.52;57.23;102010.59;5056987;28;20017;-61
2022/06/10 12:46:27;;;;;;;;;;;;;;;22.62;56.42;102016.38;5055825;28;19981;-60
2022/06/10 12:48:52;;;;;;;;;;;;;;;22.52;57.71;102007.88;5063653;28;20085;-61
2022/06/10 12:51:36;;;;;;;;;;;;;;;22.59;56.25;102010.56;5063190;28;20383;-61
2022/06/10 12:54:17;;;;;;;;;;;;;;;22.69;57.18;102005.50;5062617;28;19924;-61
2022/06/10 12:56:42;;;;;;;;;;;;;;;22.86;56.12;102005.88;5055667;28;19920;-60
2022/06/10 12:59:07;;;;;;;;;;;;;;;22.64;57.40;102006.16;5061175;28;19950;-61